sensor_id;sensor_type;location;lat;lon;timestamp;P1;P2;P0
40371;PMS5003;28564;53.346;-6.554;2022-12-07T00:01:14;23;19;
40371;PMS5003;28564;53.346;-6.554;2022-12-07T00:03:43;20;16;
40371;PMS5003;28564;53.346;-6.554;2022-12-07T00:06:12;21;17;
40371;PMS5003;28564;53.346;-6.554;2022-12-07T00:08:42;29;23;
40371;PMS5003;28564;53.346;-6.554;2022-12-07T00:11:10;25;23;
40371;PMS5003;28564;53.346;-6.554;2022-12-07T00:13:40;23;21;
40371;PMS5003;28564;53.346;-6.554;2022-12-07T00:16:09;23;21;
40371;PMS5003;28564;53.346;-6.554;2022-12-07T00:18:38;21;20;
40371;PMS5003;28564;53.346;-6.554;2022-12-07T00:21:08;24;22;
40371;PMS5003;28564;53.346;-6.554;2022-12-07T00:23:37;24;18;
40371;PMS5003;28564;53.346;-6.554;2022-12-07T00:26:05;24;21;
40371;PMS5003;28564;53.346;-6.554;2022-12-07T00:28:34;21;19;
40371;PMS5003;28564;53.346;-6.554;2022-12-07T00:31:03;22;22;
40371;PMS5003;28564;53.346;-6.554;2022-12-07T00:33:32;22;22;
40371;PMS5003;28564;53.346;-6.554;2022-12-07T00:36:00;19;19;
40371;PMS5003;28564;53.346;-6.554;2022-12-07T00:38:30;22;19;
40371;PMS5003;28564;53.346;-6.554;2022-12-07T00:40:59;33;24;
40371;PMS5003;28564;53.346;-6.554;2022-12-07T00:43:28;25;22;
40371;PMS5003;28564;53.346;-6.554;2022-12-07T00:45:56;28;22;
40371;PMS5003;28564;53.346;-6.554;2022-12-07T00:48:24;22;19;
40371;PMS5003;28564;53.346;-6.554;2022-12-07T00:50:52;23;19;
40371;PMS5003;28564;53.346;-6.554;2022-12-07T00:53:20;26;21;
40371;PMS5003;28564;53.346;-6.554;2022-12-07T00:55:47;26;25;
40371;PMS5003;28564;53.346;-6.554;2022-12-07T00:58:15;29;23;
40371;PMS5003;28564;53.346;-6.554;2022-12-07T01:00:43;25;25;
40371;PMS5003;28564;53.346;-6.554;2022-12-07T01:03:11;24;22;
40371;PMS5003;28564;53.346;-6.554;2022-12-07T01:05:39;21;17;
40371;PMS5003;28564;53.346;-6.554;2022-12-07T01:08:14;27;18;
40371;PMS5003;28564;53.346;-6.554;2022-12-07T01:10:42;18;18;
40371;PMS5003;28564;53.346;-6.554;2022-12-07T01:13:09;32;25;
40371;PMS5003;28564;53.346;-6.554;2022-12-07T01:15:38;25;20;
40371;PMS5003;28564;53.346;-6.554;2022-12-07T01:18:05;23;23;
40371;PMS5003;28564;53.346;-6.554;2022-12-07T01:20:33;24;21;
40371;PMS5003;28564;53.346;-6.554;2022-12-07T01:23:00;23;22;
40371;PMS5003;28564;53.346;-6.554;2022-12-07T01:25:27;17;16;
40371;PMS5003;28564;53.346;-6.554;2022-12-07T01:27:55;26;22;
40371;PMS5003;28564;53.346;-6.554;2022-12-07T01:30:22;20;19;
40371;PMS5003;28564;53.346;-6.554;2022-12-07T01:32:50;20;17;
40371;PMS5003;28564;53.346;-6.554;2022-12-07T01:35:17;29;23;
40371;PMS5003;28564;53.346;-6.554;2022-12-07T01:37:44;22;19;
40371;PMS5003;28564;53.346;-6.554;2022-12-07T01:40:11;27;26;
40371;PMS5003;28564;53.346;-6.554;2022-12-07T01:42:39;27;22;
40371;PMS5003;28564;53.346;-6.554;2022-12-07T01:45:31;21;17;
40371;PMS5003;28564;53.346;-6.554;2022-12-07T01:48:04;22;20;
40371;PMS5003;28564;53.346;-6.554;2022-12-07T01:50:34;30;25;
40371;PMS5003;28564;53.346;-6.554;2022-12-07T01:53:03;21;20;
40371;PMS5003;28564;53.346;-6.554;2022-12-07T01:55:34;26;23;
40371;PMS5003;28564;53.346;-6.554;2022-12-07T01:58:07;25;22;
40371;PMS5003;28564;53.346;-6.554;2022-12-07T02:00:35;23;19;
40371;PMS5003;28564;53.346;-6.554;2022-12-07T02:03:04;20;14;
40371;PMS5003;28564;53.346;-6.554;2022-12-07T02:05:35;21;15;
40371;PMS5003;28564;53.346;-6.554;2022-12-07T02:08:05;17;17;
40371;PMS5003;28564;53.346;-6.554;2022-12-07T02:10:32;19;18;
40371;PMS5003;28564;53.346;-6.554;2022-12-07T02:13:01;19;16;
40371;PMS5003;28564;53.346;-6.554;2022-12-07T02:15:34;21;15;
40371;PMS5003;28564;53.346;-6.554;2022-12-07T02:18:14;19;17;
40371;PMS5003;28564;53.346;-6.554;2022-12-07T02:20:48;19;18;
40371;PMS5003;28564;53.346;-6.554;2022-12-07T02:24:01;20;18;
40371;PMS5003;28564;53.346;-6.554;2022-12-07T02:26:54;24;21;
40371;PMS5003;28564;53.346;-6.554;2022-12-07T02:29:35;20;20;
40371;PMS5003;28564;53.346;-6.554;2022-12-07T02:32:08;20;18;
40371;PMS5003;28564;53.346;-6.554;2022-12-07T02:34:42;23;20;
40371;PMS5003;28564;53.346;-6.554;2022-12-07T02:37:17;21;18;
40371;PMS5003;28564;53.346;-6.554;2022-12-07T02:39:54;19;14;
40371;PMS5003;28564;53.346;-6.554;2022-12-07T02:42:27;23;17;
40371;PMS5003;28564;53.346;-6.554;2022-12-07T02:44:59;19;14;
40371;PMS5003;28564;53.346;-6.554;2022-12-07T02:47:27;14;14;
40371;PMS5003;28564;53.346;-6.554;2022-12-07T02:49:56;15;13;
40371;PMS5003;28564;53.346;-6.554;2022-12-07T02:52:23;18;14;
40371;PMS5003;28564;53.346;-6.554;2022-12-07T02:54:51;18;15;
40371;PMS5003;28564;53.346;-6.554;2022-12-07T02:57:23;19;17;
40371;PMS5003;28564;53.346;-6.554;2022-12-07T03:00:04;19;14;
40371;PMS5003;28564;53.346;-6.554;2022-12-07T03:02:36;14;13;
40371;PMS5003;28564;53.346;-6.554;2022-12-07T03:05:15;20;19;
40371;PMS5003;28564;53.346;-6.554;2022-12-07T03:07:59;19;17;
40371;PMS5003;28564;53.346;-6.554;2022-12-07T03:10:34;18;16;
40371;PMS5003;28564;53.346;-6.554;2022-12-07T03:13:09;20;19;
40371;PMS5003;28564;53.346;-6.554;2022-12-07T03:15:46;19;18;
40371;PMS5003;28564;53.346;-6.554;2022-12-07T03:18:21;18;14;
40371;PMS5003;28564;53.346;-6.554;2022-12-07T03:20:52;15;15;
40371;PMS5003;28564;53.346;-6.554;2022-12-07T03:23:23;22;18;
40371;PMS5003;28564;53.346;-6.554;2022-12-07T03:25:55;23;21;
40371;PMS5003;28564;53.346;-6.554;2022-12-07T03:28:26;17;17;
40371;PMS5003;28564;53.346;-6.554;2022-12-07T03:30:59;20;15;
40371;PMS5003;28564;53.346;-6.554;2022-12-07T03:33:31;14;14;
40371;PMS5003;28564;53.346;-6.554;2022-12-07T03:36:04;17;13;
40371;PMS5003;28564;53.346;-6.554;2022-12-07T03:38:37;14;14;
40371;PMS5003;28564;53.346;-6.554;2022-12-07T03:41:10;17;14;
40371;PMS5003;28564;53.346;-6.554;2022-12-07T03:43:42;15;14;
40371;PMS5003;28564;53.346;-6.554;2022-12-07T03:46:14;23;18;
40371;PMS5003;28564;53.346;-6.554;2022-12-07T03:48:50;17;15;
40371;PMS5003;28564;53.346;-6.554;2022-12-07T03:51:28;14;13;
40371;PMS5003;28564;53.346;-6.554;2022-12-07T03:54:02;19;13;
40371;PMS5003;28564;53.346;-6.554;2022-12-07T03:56:37;13;11;
40371;PMS5003;28564;53.346;-6.554;2022-12-07T03:59:06;13;12;
40371;PMS5003;28564;53.346;-6.554;2022-12-07T04:01:34;15;12;
40371;PMS5003;28564;53.346;-6.554;2022-12-07T04:04:01;15;12;
40371;PMS5003;28564;53.346;-6.554;2022-12-07T04:06:29;23;15;
40371;PMS5003;28564;53.346;-6.554;2022-12-07T04:08:56;15;14;
40371;PMS5003;28564;53.346;-6.554;2022-12-07T04:11:24;21;19;
40371;PMS5003;28564;53.346;-6.554;2022-12-07T04:13:51;18;14;
40371;PMS5003;28564;53.346;-6.554;2022-12-07T04:16:18;19;17;
40371;PMS5003;28564;53.346;-6.554;2022-12-07T04:18:45;18;15;
40371;PMS5003;28564;53.346;-6.554;2022-12-07T04:21:13;19;17;
40371;PMS5003;28564;53.346;-6.554;2022-12-07T04:23:40;19;16;
40371;PMS5003;28564;53.346;-6.554;2022-12-07T04:26:08;16;16;
40371;PMS5003;28564;53.346;-6.554;2022-12-07T04:28:35;21;17;
40371;PMS5003;28564;53.346;-6.554;2022-12-07T04:31:02;25;14;
40371;PMS5003;28564;53.346;-6.554;2022-12-07T04:33:29;19;17;
40371;PMS5003;28564;53.346;-6.554;2022-12-07T04:35:56;18;17;
40371;PMS5003;28564;53.346;-6.554;2022-12-07T04:38:24;24;16;
40371;PMS5003;28564;53.346;-6.554;2022-12-07T04:40:51;20;17;
40371;PMS5003;28564;53.346;-6.554;2022-12-07T04:43:18;24;23;
40371;PMS5003;28564;53.346;-6.554;2022-12-07T04:45:46;21;19;
40371;PMS5003;28564;53.346;-6.554;2022-12-07T04:48:14;16;16;
40371;PMS5003;28564;53.346;-6.554;2022-12-07T04:50:41;22;19;
40371;PMS5003;28564;53.346;-6.554;2022-12-07T04:53:09;18;17;
40371;PMS5003;28564;53.346;-6.554;2022-12-07T04:55:37;27;22;
40371;PMS5003;28564;53.346;-6.554;2022-12-07T04:58:04;21;16;
40371;PMS5003;28564;53.346;-6.554;2022-12-07T05:00:31;26;23;
40371;PMS5003;28564;53.346;-6.554;2022-12-07T05:02:58;26;18;
40371;PMS5003;28564;53.346;-6.554;2022-12-07T05:05:25;30;26;
40371;PMS5003;28564;53.346;-6.554;2022-12-07T05:07:53;16;16;
40371;PMS5003;28564;53.346;-6.554;2022-12-07T05:10:20;19;18;
40371;PMS5003;28564;53.346;-6.554;2022-12-07T05:12:48;24;22;
40371;PMS5003;28564;53.346;-6.554;2022-12-07T05:15:15;20;19;
40371;PMS5003;28564;53.346;-6.554;2022-12-07T05:17:43;19;18;
40371;PMS5003;28564;53.346;-6.554;2022-12-07T05:20:11;12;12;
40371;PMS5003;28564;53.346;-6.554;2022-12-07T05:22:38;18;18;
40371;PMS5003;28564;53.346;-6.554;2022-12-07T05:25:05;14;14;
40371;PMS5003;28564;53.346;-6.554;2022-12-07T05:27:32;22;17;
40371;PMS5003;28564;53.346;-6.554;2022-12-07T05:30:00;17;12;
40371;PMS5003;28564;53.346;-6.554;2022-12-07T05:32:27;22;16;
40371;PMS5003;28564;53.346;-6.554;2022-12-07T05:34:54;19;17;
40371;PMS5003;28564;53.346;-6.554;2022-12-07T05:37:22;14;14;
40371;PMS5003;28564;53.346;-6.554;2022-12-07T05:39:49;18;16;
40371;PMS5003;28564;53.346;-6.554;2022-12-07T05:42:16;22;18;
40371;PMS5003;28564;53.346;-6.554;2022-12-07T05:44:45;12;12;
40371;PMS5003;28564;53.346;-6.554;2022-12-07T05:47:13;19;14;
40371;PMS5003;28564;53.346;-6.554;2022-12-07T05:49:42;20;18;
40371;PMS5003;28564;53.346;-6.554;2022-12-07T05:52:09;17;17;
40371;PMS5003;28564;53.346;-6.554;2022-12-07T05:54:36;19;17;
40371;PMS5003;28564;53.346;-6.554;2022-12-07T05:57:03;14;13;
40371;PMS5003;28564;53.346;-6.554;2022-12-07T05:59:31;21;17;
40371;PMS5003;28564;53.346;-6.554;2022-12-07T06:01:59;19;17;
40371;PMS5003;28564;53.346;-6.554;2022-12-07T06:04:29;18;14;
40371;PMS5003;28564;53.346;-6.554;2022-12-07T06:06:58;16;14;
40371;PMS5003;28564;53.346;-6.554;2022-12-07T06:09:26;12;12;
40371;PMS5003;28564;53.346;-6.554;2022-12-07T06:11:54;21;16;
40371;PMS5003;28564;53.346;-6.554;2022-12-07T06:14:23;19;14;
40371;PMS5003;28564;53.346;-6.554;2022-12-07T06:16:50;19;12;
40371;PMS5003;28564;53.346;-6.554;2022-12-07T06:19:17;14;11;
40371;PMS5003;28564;53.346;-6.554;2022-12-07T06:21:45;20;12;
40371;PMS5003;28564;53.346;-6.554;2022-12-07T06:24:13;11;10;
40371;PMS5003;28564;53.346;-6.554;2022-12-07T06:26:41;11;10;
40371;PMS5003;28564;53.346;-6.554;2022-12-07T06:29:10;12;10;
40371;PMS5003;28564;53.346;-6.554;2022-12-07T06:31:38;12;9;
40371;PMS5003;28564;53.346;-6.554;2022-12-07T06:34:06;11;10;
40371;PMS5003;28564;53.346;-6.554;2022-12-07T06:36:37;10;10;
40371;PMS5003;28564;53.346;-6.554;2022-12-07T06:39:04;9;9;
40371;PMS5003;28564;53.346;-6.554;2022-12-07T06:41:32;13;9;
40371;PMS5003;28564;53.346;-6.554;2022-12-07T06:43:59;12;10;
40371;PMS5003;28564;53.346;-6.554;2022-12-07T06:46:27;10;10;
40371;PMS5003;28564;53.346;-6.554;2022-12-07T06:48:54;16;12;
40371;PMS5003;28564;53.346;-6.554;2022-12-07T06:51:21;18;12;
40371;PMS5003;28564;53.346;-6.554;2022-12-07T06:53:48;15;11;
40371;PMS5003;28564;53.346;-6.554;2022-12-07T06:56:16;21;15;
40371;PMS5003;28564;53.346;-6.554;2022-12-07T06:58:43;13;11;
40371;PMS5003;28564;53.346;-6.554;2022-12-07T07:01:11;17;15;
40371;PMS5003;28564;53.346;-6.554;2022-12-07T07:03:39;12;12;
40371;PMS5003;28564;53.346;-6.554;2022-12-07T07:06:07;13;12;
40371;PMS5003;28564;53.346;-6.554;2022-12-07T07:08:35;16;16;
40371;PMS5003;28564;53.346;-6.554;2022-12-07T07:11:04;10;9;
40371;PMS5003;28564;53.346;-6.554;2022-12-07T07:13:32;11;6;
40371;PMS5003;28564;53.346;-6.554;2022-12-07T07:16:00;12;11;
40371;PMS5003;28564;53.346;-6.554;2022-12-07T07:18:27;10;9;
40371;PMS5003;28564;53.346;-6.554;2022-12-07T07:20:55;9;7;
40371;PMS5003;28564;53.346;-6.554;2022-12-07T07:23:23;14;10;
40371;PMS5003;28564;53.346;-6.554;2022-12-07T07:25:50;12;9;
40371;PMS5003;28564;53.346;-6.554;2022-12-07T07:28:17;12;9;
40371;PMS5003;28564;53.346;-6.554;2022-12-07T07:30:44;7;7;
40371;PMS5003;28564;53.346;-6.554;2022-12-07T07:33:12;11;8;
40371;PMS5003;28564;53.346;-6.554;2022-12-07T07:35:39;11;8;
40371;PMS5003;28564;53.346;-6.554;2022-12-07T07:38:07;9;7;
40371;PMS5003;28564;53.346;-6.554;2022-12-07T07:40:35;9;9;
40371;PMS5003;28564;53.346;-6.554;2022-12-07T07:43:03;8;8;
40371;PMS5003;28564;53.346;-6.554;2022-12-07T07:45:30;8;8;
40371;PMS5003;28564;53.346;-6.554;2022-12-07T07:47:57;12;9;
40371;PMS5003;28564;53.346;-6.554;2022-12-07T07:50:25;11;8;
40371;PMS5003;28564;53.346;-6.554;2022-12-07T07:52:52;9;9;
40371;PMS5003;28564;53.346;-6.554;2022-12-07T07:55:20;13;12;
40371;PMS5003;28564;53.346;-6.554;2022-12-07T07:57:46;15;13;
40371;PMS5003;28564;53.346;-6.554;2022-12-07T08:00:15;13;11;
40371;PMS5003;28564;53.346;-6.554;2022-12-07T08:02:43;12;11;
40371;PMS5003;28564;53.346;-6.554;2022-12-07T08:05:11;24;21;
40371;PMS5003;28564;53.346;-6.554;2022-12-07T08:07:39;16;16;
40371;PMS5003;28564;53.346;-6.554;2022-12-07T08:10:08;18;12;
40371;PMS5003;28564;53.346;-6.554;2022-12-07T08:12:37;15;13;
40371;PMS5003;28564;53.346;-6.554;2022-12-07T08:15:06;13;11;
40371;PMS5003;28564;53.346;-6.554;2022-12-07T08:17:34;12;12;
40371;PMS5003;28564;53.346;-6.554;2022-12-07T08:20:01;14;11;
40371;PMS5003;28564;53.346;-6.554;2022-12-07T08:22:29;18;12;
40371;PMS5003;28564;53.346;-6.554;2022-12-07T08:24:57;15;11;
40371;PMS5003;28564;53.346;-6.554;2022-12-07T08:27:24;16;15;
40371;PMS5003;28564;53.346;-6.554;2022-12-07T08:29:51;16;11;
40371;PMS5003;28564;53.346;-6.554;2022-12-07T08:32:18;10;9;
40371;PMS5003;28564;53.346;-6.554;2022-12-07T08:34:46;12;11;
40371;PMS5003;28564;53.346;-6.554;2022-12-07T08:37:13;13;9;
40371;PMS5003;28564;53.346;-6.554;2022-12-07T08:39:41;14;13;
40371;PMS5003;28564;53.346;-6.554;2022-12-07T08:42:08;12;9;
40371;PMS5003;28564;53.346;-6.554;2022-12-07T08:44:36;9;8;
40371;PMS5003;28564;53.346;-6.554;2022-12-07T08:47:04;12;10;
40371;PMS5003;28564;53.346;-6.554;2022-12-07T08:49:34;9;9;
40371;PMS5003;28564;53.346;-6.554;2022-12-07T08:52:05;8;8;
40371;PMS5003;28564;53.346;-6.554;2022-12-07T08:54:33;9;9;
40371;PMS5003;28564;53.346;-6.554;2022-12-07T08:57:03;11;9;
40371;PMS5003;28564;53.346;-6.554;2022-12-07T08:59:31;9;8;
40371;PMS5003;28564;53.346;-6.554;2022-12-07T09:02:00;9;7;
40371;PMS5003;28564;53.346;-6.554;2022-12-07T09:04:28;8;7;
40371;PMS5003;28564;53.346;-6.554;2022-12-07T09:06:55;11;10;
40371;PMS5003;28564;53.346;-6.554;2022-12-07T09:09:23;10;10;
40371;PMS5003;28564;53.346;-6.554;2022-12-07T09:11:50;11;8;
40371;PMS5003;28564;53.346;-6.554;2022-12-07T09:14:18;9;7;
40371;PMS5003;28564;53.346;-6.554;2022-12-07T09:16:45;9;9;
40371;PMS5003;28564;53.346;-6.554;2022-12-07T09:19:13;8;8;
40371;PMS5003;28564;53.346;-6.554;2022-12-07T09:21:40;10;9;
40371;PMS5003;28564;53.346;-6.554;2022-12-07T09:24:08;11;10;
40371;PMS5003;28564;53.346;-6.554;2022-12-07T09:26:35;10;7;
40371;PMS5003;28564;53.346;-6.554;2022-12-07T09:29:03;10;8;
40371;PMS5003;28564;53.346;-6.554;2022-12-07T09:31:30;8;7;
40371;PMS5003;28564;53.346;-6.554;2022-12-07T09:33:58;10;8;
40371;PMS5003;28564;53.346;-6.554;2022-12-07T09:36:27;8;7;
40371;PMS5003;28564;53.346;-6.554;2022-12-07T09:38:55;10;10;
40371;PMS5003;28564;53.346;-6.554;2022-12-07T09:41:23;8;8;
40371;PMS5003;28564;53.346;-6.554;2022-12-07T09:43:52;9;9;
40371;PMS5003;28564;53.346;-6.554;2022-12-07T09:46:22;7;7;
40371;PMS5003;28564;53.346;-6.554;2022-12-07T09:48:50;9;8;
40371;PMS5003;28564;53.346;-6.554;2022-12-07T09:51:18;8;8;
40371;PMS5003;28564;53.346;-6.554;2022-12-07T09:53:47;9;9;
40371;PMS5003;28564;53.346;-6.554;2022-12-07T09:56:15;12;10;
40371;PMS5003;28564;53.346;-6.554;2022-12-07T09:58:45;11;10;
40371;PMS5003;28564;53.346;-6.554;2022-12-07T10:03:51;8;7;
40371;PMS5003;28564;53.346;-6.554;2022-12-07T10:06:21;8;8;
40371;PMS5003;28564;53.346;-6.554;2022-12-07T10:08:48;8;7;
40371;PMS5003;28564;53.346;-6.554;2022-12-07T10:11:16;8;8;
40371;PMS5003;28564;53.346;-6.554;2022-12-07T10:13:44;7;7;
40371;PMS5003;28564;53.346;-6.554;2022-12-07T10:16:32;8;8;
40371;PMS5003;28564;53.346;-6.554;2022-12-07T10:19:22;10;8;
40371;PMS5003;28564;53.346;-6.554;2022-12-07T10:22:00;8;8;
40371;PMS5003;28564;53.346;-6.554;2022-12-07T10:24:30;7;6;
40371;PMS5003;28564;53.346;-6.554;2022-12-07T10:26:57;9;9;
40371;PMS5003;28564;53.346;-6.554;2022-12-07T10:29:28;9;7;
40371;PMS5003;28564;53.346;-6.554;2022-12-07T10:31:57;8;6;
40371;PMS5003;28564;53.346;-6.554;2022-12-07T10:34:26;13;8;
40371;PMS5003;28564;53.346;-6.554;2022-12-07T10:37:07;8;8;
40371;PMS5003;28564;53.346;-6.554;2022-12-07T10:39:43;9;8;
40371;PMS5003;28564;53.346;-6.554;2022-12-07T10:42:16;12;7;
40371;PMS5003;28564;53.346;-6.554;2022-12-07T10:44:44;7;4;
40371;PMS5003;28564;53.346;-6.554;2022-12-07T10:47:17;7;7;
40371;PMS5003;28564;53.346;-6.554;2022-12-07T10:49:58;7;7;
40371;PMS5003;28564;53.346;-6.554;2022-12-07T10:52:41;7;7;
40371;PMS5003;28564;53.346;-6.554;2022-12-07T10:55:20;10;8;
40371;PMS5003;28564;53.346;-6.554;2022-12-07T10:57:58;8;7;
40371;PMS5003;28564;53.346;-6.554;2022-12-07T11:00:40;10;9;
40371;PMS5003;28564;53.346;-6.554;2022-12-07T11:03:21;14;8;
40371;PMS5003;28564;53.346;-6.554;2022-12-07T11:05:59;8;8;
40371;PMS5003;28564;53.346;-6.554;2022-12-07T11:08:40;9;8;
40371;PMS5003;28564;53.346;-6.554;2022-12-07T11:11:22;10;10;
40371;PMS5003;28564;53.346;-6.554;2022-12-07T11:13:59;10;8;
40371;PMS5003;28564;53.346;-6.554;2022-12-07T11:16:36;11;9;
40371;PMS5003;28564;53.346;-6.554;2022-12-07T11:19:21;8;8;
40371;PMS5003;28564;53.346;-6.554;2022-12-07T11:22:00;10;8;
40371;PMS5003;28564;53.346;-6.554;2022-12-07T11:24:35;9;8;
40371;PMS5003;28564;53.346;-6.554;2022-12-07T11:27:13;9;7;
40371;PMS5003;28564;53.346;-6.554;2022-12-07T11:29:52;7;5;
40371;PMS5003;28564;53.346;-6.554;2022-12-07T11:32:34;7;7;
40371;PMS5003;28564;53.346;-6.554;2022-12-07T11:35:14;7;7;
40371;PMS5003;28564;53.346;-6.554;2022-12-07T11:37:48;5;5;
40371;PMS5003;28564;53.346;-6.554;2022-12-07T11:40:24;7;4;
40371;PMS5003;28564;53.346;-6.554;2022-12-07T11:42:56;8;8;
40371;PMS5003;28564;53.346;-6.554;2022-12-07T11:45:27;8;5;
40371;PMS5003;28564;53.346;-6.554;2022-12-07T11:47:58;9;5;
40371;PMS5003;28564;53.346;-6.554;2022-12-07T11:50:30;5;5;
40371;PMS5003;28564;53.346;-6.554;2022-12-07T11:53:03;5;5;
40371;PMS5003;28564;53.346;-6.554;2022-12-07T11:55:41;10;8;
40371;PMS5003;28564;53.346;-6.554;2022-12-07T11:58:18;4;4;
40371;PMS5003;28564;53.346;-6.554;2022-12-07T12:01:04;9;4;
40371;PMS5003;28564;53.346;-6.554;2022-12-07T12:03:40;5;4;
40371;PMS5003;28564;53.346;-6.554;2022-12-07T12:06:11;3;3;
40371;PMS5003;28564;53.346;-6.554;2022-12-07T12:08:39;3;3;
40371;PMS5003;28564;53.346;-6.554;2022-12-07T12:11:12;7;4;
40371;PMS5003;28564;53.346;-6.554;2022-12-07T12:13:58;9;8;
40371;PMS5003;28564;53.346;-6.554;2022-12-07T12:16:47;9;5;
40371;PMS5003;28564;53.346;-6.554;2022-12-07T12:19:35;2;2;
40371;PMS5003;28564;53.346;-6.554;2022-12-07T12:22:10;7;4;
40371;PMS5003;28564;53.346;-6.554;2022-12-07T12:24:42;4;3;
40371;PMS5003;28564;53.346;-6.554;2022-12-07T12:27:15;7;4;
40371;PMS5003;28564;53.346;-6.554;2022-12-07T12:29:52;6;3;
40371;PMS5003;28564;53.346;-6.554;2022-12-07T12:32:23;5;3;
40371;PMS5003;28564;53.346;-6.554;2022-12-07T12:35:00;2;2;
40371;PMS5003;28564;53.346;-6.554;2022-12-07T12:37:46;5;4;
40371;PMS5003;28564;53.346;-6.554;2022-12-07T12:40:46;3;3;
40371;PMS5003;28564;53.346;-6.554;2022-12-07T12:44:40;4;4;
40371;PMS5003;28564;53.346;-6.554;2022-12-07T12:47:38;4;4;
40371;PMS5003;28564;53.346;-6.554;2022-12-07T12:50:21;2;2;
40371;PMS5003;28564;53.346;-6.554;2022-12-07T12:52:53;4;3;
40371;PMS5003;28564;53.346;-6.554;2022-12-07T12:55:43;3;3;
40371;PMS5003;28564;53.346;-6.554;2022-12-07T12:58:38;4;3;
40371;PMS5003;28564;53.346;-6.554;2022-12-07T13:01:42;4;3;
40371;PMS5003;28564;53.346;-6.554;2022-12-07T13:04:18;4;2;
40371;PMS5003;28564;53.346;-6.554;2022-12-07T13:06:51;4;3;
40371;PMS5003;28564;53.346;-6.554;2022-12-07T13:09:20;2;2;
40371;PMS5003;28564;53.346;-6.554;2022-12-07T13:11:55;4;4;
40371;PMS5003;28564;53.346;-6.554;2022-12-07T13:14:59;1;1;
40371;PMS5003;28564;53.346;-6.554;2022-12-07T13:18:00;2;2;
40371;PMS5003;28564;53.346;-6.554;2022-12-07T13:20:46;3;3;
40371;PMS5003;28564;53.346;-6.554;2022-12-07T13:23:17;2;2;
40371;PMS5003;28564;53.346;-6.554;2022-12-07T13:25:51;3;2;
40371;PMS5003;28564;53.346;-6.554;2022-12-07T13:28:26;2;2;
40371;PMS5003;28564;53.346;-6.554;2022-12-07T13:31:08;4;3;
40371;PMS5003;28564;53.346;-6.554;2022-12-07T13:33:41;3;3;
40371;PMS5003;28564;53.346;-6.554;2022-12-07T13:36:12;2;2;
40371;PMS5003;28564;53.346;-6.554;2022-12-07T13:38:48;3;3;
40371;PMS5003;28564;53.346;-6.554;2022-12-07T13:41:19;2;2;
40371;PMS5003;28564;53.346;-6.554;2022-12-07T13:43:50;3;2;
40371;PMS5003;28564;53.346;-6.554;2022-12-07T13:46:23;4;3;
40371;PMS5003;28564;53.346;-6.554;2022-12-07T13:48:53;3;2;
40371;PMS5003;28564;53.346;-6.554;2022-12-07T13:51:22;2;2;
40371;PMS5003;28564;53.346;-6.554;2022-12-07T13:53:52;3;3;
40371;PMS5003;28564;53.346;-6.554;2022-12-07T13:56:21;5;2;
40371;PMS5003;28564;53.346;-6.554;2022-12-07T13:58:52;3;3;
40371;PMS5003;28564;53.346;-6.554;2022-12-07T14:01:21;5;4;
40371;PMS5003;28564;53.346;-6.554;2022-12-07T14:03:48;5;3;
40371;PMS5003;28564;53.346;-6.554;2022-12-07T14:06:19;4;4;
40371;PMS5003;28564;53.346;-6.554;2022-12-07T14:08:51;5;4;
40371;PMS5003;28564;53.346;-6.554;2022-12-07T14:11:34;8;4;
40371;PMS5003;28564;53.346;-6.554;2022-12-07T14:14:02;4;3;
40371;PMS5003;28564;53.346;-6.554;2022-12-07T14:16:32;5;5;
40371;PMS5003;28564;53.346;-6.554;2022-12-07T14:19:01;5;4;
40371;PMS5003;28564;53.346;-6.554;2022-12-07T14:21:31;7;7;
40371;PMS5003;28564;53.346;-6.554;2022-12-07T14:24:17;8;5;
40371;PMS5003;28564;53.346;-6.554;2022-12-07T14:26:45;3;3;
40371;PMS5003;28564;53.346;-6.554;2022-12-07T14:29:27;4;4;
40371;PMS5003;28564;53.346;-6.554;2022-12-07T14:31:59;3;3;
40371;PMS5003;28564;53.346;-6.554;2022-12-07T14:35:07;3;3;
40371;PMS5003;28564;53.346;-6.554;2022-12-07T14:37:37;5;3;
40371;PMS5003;28564;53.346;-6.554;2022-12-07T14:40:06;4;2;
40371;PMS5003;28564;53.346;-6.554;2022-12-07T14:42:39;5;3;
40371;PMS5003;28564;53.346;-6.554;2022-12-07T14:45:11;2;2;
40371;PMS5003;28564;53.346;-6.554;2022-12-07T14:47:41;3;3;
40371;PMS5003;28564;53.346;-6.554;2022-12-07T14:50:10;1;1;
40371;PMS5003;28564;53.346;-6.554;2022-12-07T14:52:38;2;2;
40371;PMS5003;28564;53.346;-6.554;2022-12-07T14:55:11;1;1;
40371;PMS5003;28564;53.346;-6.554;2022-12-07T14:57:41;2;2;
40371;PMS5003;28564;53.346;-6.554;2022-12-07T15:00:09;1;1;
40371;PMS5003;28564;53.346;-6.554;2022-12-07T15:02:41;1;1;
40371;PMS5003;28564;53.346;-6.554;2022-12-07T15:05:08;1;1;
40371;PMS5003;28564;53.346;-6.554;2022-12-07T15:07:35;3;3;
40371;PMS5003;28564;53.346;-6.554;2022-12-07T15:10:03;2;1;
40371;PMS5003;28564;53.346;-6.554;2022-12-07T15:12:32;4;2;
40371;PMS5003;28564;53.346;-6.554;2022-12-07T15:15:04;3;3;
40371;PMS5003;28564;53.346;-6.554;2022-12-07T15:17:32;4;4;
40371;PMS5003;28564;53.346;-6.554;2022-12-07T15:20:00;3;3;
40371;PMS5003;28564;53.346;-6.554;2022-12-07T15:22:27;7;5;
40371;PMS5003;28564;53.346;-6.554;2022-12-07T15:24:54;9;6;
40371;PMS5003;28564;53.346;-6.554;2022-12-07T15:27:22;10;6;
40371;PMS5003;28564;53.346;-6.554;2022-12-07T15:29:49;5;4;
40371;PMS5003;28564;53.346;-6.554;2022-12-07T15:32:16;6;5;
40371;PMS5003;28564;53.346;-6.554;2022-12-07T15:34:44;6;4;
40371;PMS5003;28564;53.346;-6.554;2022-12-07T15:37:11;6;4;
40371;PMS5003;28564;53.346;-6.554;2022-12-07T15:39:38;7;5;
40371;PMS5003;28564;53.346;-6.554;2022-12-07T15:42:06;3;3;
40371;PMS5003;28564;53.346;-6.554;2022-12-07T15:44:33;6;4;
40371;PMS5003;28564;53.346;-6.554;2022-12-07T15:47:00;2;2;
40371;PMS5003;28564;53.346;-6.554;2022-12-07T15:49:28;5;4;
40371;PMS5003;28564;53.346;-6.554;2022-12-07T15:51:55;4;3;
40371;PMS5003;28564;53.346;-6.554;2022-12-07T15:54:23;3;3;
40371;PMS5003;28564;53.346;-6.554;2022-12-07T15:56:51;4;3;
40371;PMS5003;28564;53.346;-6.554;2022-12-07T15:59:19;6;4;
40371;PMS5003;28564;53.346;-6.554;2022-12-07T16:01:46;4;4;
40371;PMS5003;28564;53.346;-6.554;2022-12-07T16:04:13;8;4;
40371;PMS5003;28564;53.346;-6.554;2022-12-07T16:06:41;5;5;
40371;PMS5003;28564;53.346;-6.554;2022-12-07T16:09:08;6;4;
40371;PMS5003;28564;53.346;-6.554;2022-12-07T16:11:35;5;4;
40371;PMS5003;28564;53.346;-6.554;2022-12-07T16:14:03;5;3;
40371;PMS5003;28564;53.346;-6.554;2022-12-07T16:16:30;5;5;
40371;PMS5003;28564;53.346;-6.554;2022-12-07T16:18:57;5;5;
40371;PMS5003;28564;53.346;-6.554;2022-12-07T16:21:25;6;5;
40371;PMS5003;28564;53.346;-6.554;2022-12-07T16:23:52;4;4;
40371;PMS5003;28564;53.346;-6.554;2022-12-07T16:26:20;5;3;
40371;PMS5003;28564;53.346;-6.554;2022-12-07T16:28:48;8;5;
40371;PMS5003;28564;53.346;-6.554;2022-12-07T16:31:17;5;5;
40371;PMS5003;28564;53.346;-6.554;2022-12-07T16:33:45;4;4;
40371;PMS5003;28564;53.346;-6.554;2022-12-07T16:36:14;5;5;
40371;PMS5003;28564;53.346;-6.554;2022-12-07T16:38:42;8;5;
40371;PMS5003;28564;53.346;-6.554;2022-12-07T16:41:10;8;6;
40371;PMS5003;28564;53.346;-6.554;2022-12-07T16:43:38;8;5;
40371;PMS5003;28564;53.346;-6.554;2022-12-07T16:46:05;4;4;